Time;durP1;ratioP1;P1;durP2;ratioP2;P2;SDS_P1;SDS_P2;PMS_P1;PMS_P2;Temp;Humidity;BMP_temperature;BMP_pressure;BME280_temperature;BME280_humidity;BME280_pressure;Samples;Min_cycle;Max_cycle;Signal;HPM_P1;HPM_P2
2021/03/19 00:03:37;;;;;;;158.93;58.67;;;;;;;-2.44;67.18;99005.16;4479894;78;21181;-82
2021/03/19 00:09:38;;;;;;;147.17;54.97;;;;;;;-2.70;67.10;98995.88;4475334;78;21681;-82
2021/03/19 00:15:40;;;;;;;162.80;55.80;;;;;;;-2.64;67.24;98994.72;4480548;77;21344;-82
2021/03/19 00:21:42;;;;;;;160.27;57.60;;;;;;;-2.59;68.03;98986.63;4491963;77;22503;-83
2021/03/19 00:27:44;;;;;;;168.50;59.77;;;;;;;-2.60;67.99;98991.17;4484023;77;21312;-82
2021/03/19 00:33:46;;;;;;;173.57;56.97;;;;;;;-2.61;67.85;98990.13;4446639;77;21216;-81
2021/03/19 00:39:47;;;;;;;156.10;58.10;;;;;;;-2.61;68.65;98982.09;4475628;78;21361;-82
2021/03/19 00:45:49;;;;;;;163.13;61.43;;;;;;;-2.58;68.98;98985.52;4466534;77;21510;-81
2021/03/19 00:51:51;;;;;;;170.93;62.00;;;;;;;-2.46;68.99;98984.56;4462510;77;21201;-81
2021/03/19 00:57:52;;;;;;;167.63;60.87;;;;;;;-2.40;69.21;98980.19;4475303;77;21206;-83
2021/03/19 01:03:54;;;;;;;167.50;62.13;;;;;;;-2.37;69.28;98976.11;4485003;77;21332;-81
2021/03/19 01:09:57;;;;;;;146.70;58.20;;;;;;;-2.31;69.50;98975.75;4485404;79;21239;-81
2021/03/19 01:15:59;;;;;;;152.63;57.00;;;;;;;-2.20;69.57;98971.83;4453706;79;21157;-81
2021/03/19 01:22:01;;;;;;;157.00;59.30;;;;;;;-2.04;69.66;98972.37;4469808;77;21331;-82
2021/03/19 01:28:03;;;;;;;152.30;62.73;;;;;;;-2.09;69.66;98969.77;4460779;77;21636;-81
2021/03/19 01:34:05;;;;;;;153.57;63.67;;;;;;;-2.07;69.69;98968.94;4477345;77;21200;-81
2021/03/19 01:40:08;;;;;;;160.07;66.57;;;;;;;-2.12;69.66;98969.02;4452389;78;21153;-81
2021/03/19 01:47:06;;;;;;;159.30;62.57;;;;;;;-2.26;69.22;98972.19;4459288;78;21527;-81
2021/03/19 01:53:44;;;;;;;;;;;;;;;-2.35;69.61;98969.92;4473266;77;21170;-82
2021/03/19 02:00:34;;;;;;;140.53;59.63;;;;;;;-2.28;70.28;98965.78;4464308;77;20757;-81
2021/03/19 02:07:31;;;;;;;158.33;62.37;;;;;;;-2.47;70.14;98962.84;4360367;77;21189;-81
2021/03/19 02:14:30;;;;;;;151.17;61.20;;;;;;;-2.55;70.22;98967.55;4474665;77;21336;-81
2021/03/19 02:21:27;;;;;;;152.70;61.50;;;;;;;-2.68;70.24;98970.95;4466679;77;21245;-81
2021/03/19 02:28:01;;;;;;;;;;;;;;;-2.76;69.95;98959.53;4481054;78;21284;-80
2021/03/19 02:34:03;;;;;;;149.90;58.57;;;;;;;-2.87;70.82;98964.23;4451837;77;20295;-80
2021/03/19 02:40:09;;;;;;;158.57;69.17;;;;;;;-2.91;70.75;98965.11;4471684;78;21306;-80
2021/03/19 02:46:11;;;;;;;175.10;72.33;;;;;;;-2.94;70.78;98961.67;4475182;77;21142;-80
2021/03/19 02:52:13;;;;;;;170.70;70.57;;;;;;;-3.08;70.95;98961.55;4455208;77;21142;-80
2021/03/19 02:58:16;;;;;;;172.63;71.73;;;;;;;-3.26;70.84;98971.13;4462779;77;21154;-79
2021/03/19 03:04:20;;;;;;;186.23;74.87;;;;;;;-3.37;71.40;98971.55;4438165;77;21188;-79
2021/03/19 03:10:24;;;;;;;175.27;72.43;;;;;;;-3.29;71.38;98975.72;4484903;77;21647;-79
2021/03/19 03:16:25;;;;;;;219.63;90.33;;;;;;;-3.34;71.92;98978.48;4459629;77;21343;-80
2021/03/19 03:22:27;;;;;;;220.27;87.00;;;;;;;-3.38;72.13;98972.62;4472541;77;22285;-80
2021/03/19 03:28:28;;;;;;;198.17;82.87;;;;;;;-3.50;72.02;98977.58;4323878;81;21339;-79
2021/03/19 03:34:31;;;;;;;186.90;76.07;;;;;;;-3.51;72.34;98974.66;4318833;80;21226;-80
2021/03/19 03:40:41;;;;;;;180.10;76.30;;;;;;;-3.62;72.11;98970.48;4310002;80;21909;-80
2021/03/19 03:46:45;;;;;;;179.57;74.93;;;;;;;-3.71;72.43;98974.31;4454262;77;24696;-79
2021/03/19 03:52:47;;;;;;;172.03;71.73;;;;;;;-3.80;72.53;98975.20;4183299;83;21357;-79
2021/03/19 03:58:49;;;;;;;176.33;74.53;;;;;;;-3.90;72.60;98980.66;4181466;83;21367;-79
2021/03/19 04:04:51;;;;;;;181.53;73.70;;;;;;;-3.94;73.12;98973.73;4173863;83;21702;-80
2021/03/19 04:10:57;;;;;;;169.73;73.40;;;;;;;-3.91;73.01;98974.50;4180722;83;21373;-80
2021/03/19 04:16:59;;;;;;;169.67;71.87;;;;;;;-4.04;73.13;98978.38;4173335;83;21178;-78
2021/03/19 04:23:00;;;;;;;162.83;71.43;;;;;;;-4.12;72.97;98970.41;4183921;83;21666;-79
2021/03/19 04:29:03;;;;;;;163.93;67.93;;;;;;;-4.00;73.83;98972.72;4181129;83;21238;-79
2021/03/19 04:35:06;;;;;;;196.00;78.33;;;;;;;-3.98;73.27;98970.04;4185531;83;21201;-81
2021/03/19 04:41:09;;;;;;;173.57;74.70;;;;;;;-3.89;74.01;98972.89;4181034;83;21207;-80
2021/03/19 04:47:12;;;;;;;161.43;68.87;;;;;;;-4.01;73.39;98973.25;4173123;83;21232;-80
2021/03/19 04:53:13;;;;;;;179.80;69.27;;;;;;;-4.16;73.72;98976.59;4181524;83;21304;-79
2021/03/19 04:59:15;;;;;;;178.10;71.40;;;;;;;-4.11;73.84;98976.02;4172657;83;21213;-79
2021/03/19 05:05:21;;;;;;;166.03;69.03;;;;;;;-4.01;74.04;98975.92;4185352;83;21216;-79
2021/03/19 05:11:22;;;;;;;169.47;70.07;;;;;;;-3.93;74.18;98983.91;4183349;81;21222;-79
2021/03/19 05:17:24;;;;;;;178.77;73.70;;;;;;;-3.93;74.42;98983.34;4176857;83;21292;-79
2021/03/19 05:23:30;;;;;;;166.37;66.17;;;;;;;-3.99;74.36;98985.80;4182488;83;21238;-79
2021/03/19 05:29:31;;;;;;;;;;;;;;;-3.89;74.19;98982.25;4173365;83;21670;-79
2021/03/19 05:35:34;;;;;;;167.70;69.10;;;;;;;-3.63;75.78;98992.95;4181207;83;20215;-79
2021/03/19 05:41:39;;;;;;;175.13;71.60;;;;;;;-3.46;75.61;98990.66;4183565;83;21218;-79
2021/03/19 05:47:42;;;;;;;159.37;68.47;;;;;;;-3.19;75.84;98995.45;4182721;83;21336;-80
2021/03/19 05:53:48;;;;;;;157.57;70.77;;;;;;;-2.89;75.68;98997.20;4175224;83;21621;-79
2021/03/19 05:59:54;;;;;;;203.25;88.17;;;;;;;-2.69;75.78;98999.61;4180734;83;21185;-78
2021/03/19 06:06:05;;;;;;;;;;;;;;;-2.44;75.82;99010.52;4184165;83;21228;-79
2021/03/19 06:12:14;;;;;;;172.00;71.40;;;;;;;-2.20;76.18;99010.70;4178249;83;20189;-79
2021/03/19 06:18:36;;;;;;;169.20;73.83;;;;;;;-1.97;76.08;99028.58;4099611;85;21271;-79
2021/03/19 06:24:38;;;;;;;205.33;92.67;;;;;;;-1.83;75.83;99029.95;4056773;86;21352;-80
2021/03/19 06:30:43;;;;;;;195.53;95.63;;;;;;;-1.63;76.23;99033.11;4058011;86;21211;-80
2021/03/19 06:37:05;;;;;;;220.10;101.47;;;;;;;-1.35;76.71;99030.48;4057621;86;21175;-80
2021/03/19 06:43:27;;;;;;;213.70;102.47;;;;;;;-1.27;76.65;99035.98;4059487;86;21187;-80
2021/03/19 06:49:32;;;;;;;226.93;103.60;;;;;;;-1.25;76.86;99044.52;4059623;85;21193;-81
2021/03/19 06:55:39;;;;;;;235.30;106.20;;;;;;;-1.19;77.22;99039.86;4197234;83;21158;-81
2021/03/19 07:01:41;;;;;;;232.30;106.40;;;;;;;-1.10;77.08;99044.79;4192002;83;21721;-81
2021/03/19 07:08:03;;;;;;;223.83;103.93;;;;;;;-1.05;77.12;99051.41;4203536;83;21246;-81
2021/03/19 07:14:17;;;;;;;235.77;105.23;;;;;;;-0.97;77.03;99048.81;4186982;83;22707;-82
2021/03/19 07:20:42;;;;;;;236.30;101.47;;;;;;;-0.89;76.98;99052.16;4014514;86;21205;-83
2021/03/19 07:26:53;;;;;;;219.17;93.90;;;;;;;-0.79;77.00;99062.72;4016868;85;21272;-85
2021/03/19 07:33:33;;;;;;;194.27;84.67;;;;;;;-0.73;76.99;99072.80;3999116;87;21278;-84
2021/03/19 07:40:14;;;;;;;197.33;94.33;;;;;;;-0.65;76.82;99075.60;3998254;85;22675;-84
2021/03/19 07:46:43;;;;;;;197.83;92.70;;;;;;;-0.57;76.51;99076.25;4012598;86;21263;-85
2021/03/19 07:53:04;;;;;;;197.60;91.57;;;;;;;-0.51;76.26;99069.66;4012273;86;21237;-83
2021/03/19 07:59:51;;;;;;;197.90;90.97;;;;;;;-0.57;76.70;99072.75;3995318;87;21246;-83
2021/03/19 08:05:54;;;;;;;176.57;83.05;;;;;;;-0.55;76.85;99072.69;4008452;87;21197;-84
2021/03/19 08:12:26;;;;;;;190.87;88.67;;;;;;;-0.25;76.87;99078.77;3990619;87;21234;-83
2021/03/19 08:18:49;;;;;;;189.60;89.30;;;;;;;-0.07;76.92;99077.85;3994721;87;21382;-84
2021/03/19 08:25:20;;;;;;;180.73;82.93;;;;;;;0.09;76.46;99079.64;4007288;86;21241;-85
2021/03/19 08:31:37;;;;;;;156.35;69.75;;;;;;;0.06;76.68;99072.72;4006628;87;21904;-86
2021/03/19 08:37:50;;;;;;;168.30;78.47;;;;;;;0.24;76.51;99075.23;4005699;87;21365;-86
2021/03/19 08:44:03;;;;;;;103.07;50.23;;;;;;;0.43;76.54;99074.52;3996108;87;21587;-86
2021/03/19 08:50:44;;;;;;;86.63;40.45;;;;;;;0.64;76.43;99075.61;4008357;86;21229;-87
2021/03/19 08:56:51;;;;;;;68.57;31.90;;;;;;;1.45;76.70;99063.42;4039291;85;21719;-85
2021/03/19 09:03:06;;;;;;;34.92;17.02;;;;;;;2.32;73.21;99058.58;4026048;86;21254;-86
2021/03/19 09:09:35;;;;;;;32.63;16.57;;;;;;;2.72;70.02;99061.31;4018270;86;21423;-85
2021/03/19 09:26:51;;;;;;;26.10;13.25;;;;;;;3.92;67.50;99047.19;4614727;74;22951;-85
2021/03/19 09:32:56;;;;;;;26.15;15.83;;;;;;;3.83;66.86;99047.27;4544705;76;21171;-85
2021/03/19 09:39:04;;;;;;;31.60;15.80;;;;;;;4.42;67.83;99039.20;4549805;76;21181;-86
2021/03/19 09:45:18;;;;;;;24.90;15.48;;;;;;;4.25;66.90;99039.92;4559696;76;21178;-87
2021/03/19 09:51:46;;;;;;;27.07;14.68;;;;;;;4.08;67.37;99036.80;4541231;78;21088;-86
2021/03/19 09:57:49;;;;;;;22.02;13.15;;;;;;;4.21;66.71;99028.94;4542437;78;21152;-88
2021/03/19 10:03:59;;;;;;;22.07;13.13;;;;;;;4.55;66.16;99034.62;4547930;78;21204;-86
2021/03/19 10:10:16;;;;;;;26.42;14.50;;;;;;;5.09;64.65;99032.02;4551667;76;21613;-86
2021/03/19 10:16:26;;;;;;;26.77;13.80;;;;;;;4.33;62.21;99026.30;4542124;76;21186;-86
2021/03/19 10:23:35;;;;;;;21.85;12.60;;;;;;;4.49;63.11;99023.76;4529726;76;21146;-88
2021/03/19 10:30:20;;;;;;;55.12;30.02;;;;;;;5.31;63.57;99026.14;4536511;77;21115;-88
2021/03/19 10:36:45;;;;;;;49.75;28.42;;;;;;;6.66;61.56;99030.36;4542910;77;21130;-88
2021/03/19 10:43:08;;;;;;;55.95;29.10;;;;;;;6.34;60.65;99035.72;4446637;79;22856;-89
2021/03/19 10:49:21;;;;;;;52.40;28.90;;;;;;;5.72;62.10;99033.25;4377453;80;21297;-88
2021/03/19 10:55:31;;;;;;;47.93;24.40;;;;;;;5.01;61.73;99033.48;4376250;80;21263;-88
2021/03/19 11:01:37;;;;;;;52.27;26.27;;;;;;;4.52;62.00;99037.45;4385599;79;21161;-89
2021/03/19 11:07:43;;;;;;;40.90;22.30;;;;;;;4.34;62.11;99034.66;4383100;80;21948;-89
2021/03/19 11:13:50;;;;;;;43.25;22.65;;;;;;;4.49;61.53;99035.41;4389099;80;22140;-88
2021/03/19 11:19:58;;;;;;;37.43;19.23;;;;;;;4.58;60.87;99032.59;4353215;80;21126;-88
2021/03/19 11:26:23;;;;;;;50.10;22.35;;;;;;;4.32;60.38;99041.55;4382468;80;21204;-88
2021/03/19 11:32:31;;;;;;;37.50;21.42;;;;;;;3.55;62.03;99048.08;4380368;80;21200;-89
2021/03/19 11:38:41;;;;;;;35.45;20.17;;;;;;;2.60;63.53;99057.11;4368069;80;22616;-88
2021/03/19 11:44:48;;;;;;;40.98;22.07;;;;;;;2.05;64.84;99052.72;4342171;80;21708;-88
2021/03/19 11:51:04;;;;;;;40.58;22.37;;;;;;;1.82;65.67;99060.73;4343553;80;21670;-87
2021/03/19 12:07:58;;;;;;;35.13;17.77;;;;;;;1.78;68.54;99065.16;4498936;77;22909;-87
2021/03/19 12:14:02;;;;;;;34.50;18.15;;;;;;;2.11;67.58;99064.95;4253619;81;21213;-87
2021/03/19 12:20:05;;;;;;;37.00;20.45;;;;;;;2.21;67.71;99057.89;4283261;81;21243;-87
2021/03/19 12:26:07;;;;;;;34.98;17.23;;;;;;;2.45;67.70;99058.97;4336125;81;21581;-88
2021/03/19 12:32:09;;;;;;;29.75;16.62;;;;;;;2.65;67.15;99058.30;4336830;81;21763;-87
2021/03/19 12:38:12;;;;;;;30.88;17.65;;;;;;;2.78;66.49;99054.62;4464017;78;21212;-88
2021/03/19 12:44:15;;;;;;;30.50;16.10;;;;;;;2.92;66.61;99053.86;4277728;81;21202;-89
2021/03/19 12:50:24;;;;;;;28.65;15.10;;;;;;;3.13;65.69;99050.66;4288410;81;21209;-88
2021/03/19 12:56:26;;;;;;;28.40;17.07;;;;;;;3.26;65.34;99056.20;4294423;81;21196;-89
2021/03/19 13:02:27;;;;;;;29.65;17.32;;;;;;;3.37;65.35;99049.30;4272221;81;21191;-87
2021/03/19 13:08:29;;;;;;;32.50;18.17;;;;;;;3.62;65.29;99047.02;4207888;83;21415;-87
2021/03/19 13:15:12;;;;;;;32.53;18.27;;;;;;;3.78;64.49;99042.04;4467948;77;25357;-87
2021/03/19 13:21:30;;;;;;;32.03;17.82;;;;;;;3.62;64.37;99024.78;4417406;79;22370;-87
2021/03/19 13:27:40;;;;;;;;;;;;;;;3.56;64.64;99015.27;4425247;79;21646;-88
2021/03/19 13:33:42;;;;;;;42.33;22.05;;;;;;;3.41;64.79;99017.20;4428029;78;20273;-88
2021/03/19 13:39:44;;;;;;;43.13;20.05;;;;;;;3.80;64.73;99015.44;4421285;79;21174;-87
2021/03/19 13:45:52;;;;;;;36.58;20.82;;;;;;;3.92;64.52;99017.40;4430076;79;21205;-86
2021/03/19 13:51:54;;;;;;;39.10;19.25;;;;;;;3.93;64.53;99019.00;4390075;79;21327;-86
2021/03/19 14:04:43;;;;;;;32.88;18.23;;;;;;;3.94;64.16;99013.25;4441389;78;21229;-88
2021/03/19 14:17:51;;;;;;;21.93;12.03;;;;;;;4.23;62.59;99014.51;4412622;79;21247;-88
2021/03/19 14:23:52;;;;;;;18.30;10.50;;;;;;;4.46;61.46;99021.13;4392982;79;21206;-87
2021/03/19 14:36:18;;;;;;;15.38;8.80;;;;;;;4.21;61.02;99028.17;4585598;76;23023;-86
2021/03/19 14:42:20;;;;;;;23.10;10.90;;;;;;;3.38;62.04;99039.51;4483245;78;21219;-89
2021/03/19 14:48:27;;;;;;;20.20;11.90;;;;;;;2.82;63.28;99054.19;4484188;78;21192;-86
2021/03/19 14:54:29;;;;;;;22.77;12.10;;;;;;;2.00;65.07;99066.38;4494080;78;21164;-87
2021/03/19 15:00:36;;;;;;;25.05;12.90;;;;;;;1.40;65.74;99060.32;4497686;77;21196;-87
2021/03/19 15:06:38;;;;;;;18.23;10.60;;;;;;;1.08;66.84;99058.55;4498050;78;21180;-88
2021/03/19 15:12:41;;;;;;;16.07;9.60;;;;;;;0.99;67.19;99057.70;4491036;78;21654;-87
2021/03/19 15:18:44;;;;;;;18.15;9.93;;;;;;;1.19;67.87;99066.60;4290199;78;38166;-87
2021/03/19 15:24:46;;;;;;;20.32;11.08;;;;;;;1.25;67.78;99064.00;4216178;82;21228;-89
2021/03/19 15:30:49;;;;;;;25.20;12.15;;;;;;;1.20;68.07;99062.25;4216439;83;21724;-87
2021/03/19 15:36:50;;;;;;;22.95;12.68;;;;;;;1.11;69.88;99060.62;4215041;83;21155;-87
2021/03/19 15:42:53;;;;;;;22.20;13.60;;;;;;;1.11;70.12;99066.79;4217576;83;21188;-87
2021/03/19 15:48:55;;;;;;;26.00;12.85;;;;;;;1.11;70.38;99061.39;4213996;82;21846;-87
2021/03/19 15:54:56;;;;;;;403.62;131.78;;;;;;;1.16;71.67;99053.17;4213830;82;21703;-87
2021/03/19 16:00:58;;;;;;;25.37;13.78;;;;;;;0.97;70.63;99046.45;4216286;83;21185;-87
2021/03/19 16:07:00;;;;;;;22.45;13.75;;;;;;;1.12;70.71;99061.66;4213534;82;21195;-87
2021/03/19 16:13:03;;;;;;;26.75;14.13;;;;;;;1.14;70.84;99069.44;4210928;83;22919;-87
2021/03/19 16:19:05;;;;;;;41.80;24.45;;;;;;;1.17;70.99;99074.20;4213795;83;21791;-88
2021/03/19 16:25:09;;;;;;;28.35;15.38;;;;;;;1.12;71.07;99077.84;4217493;83;21181;-87
2021/03/19 16:31:13;;;;;;;31.77;18.12;;;;;;;0.88;71.53;99096.80;4213389;83;21350;-87
2021/03/19 16:37:15;;;;;;;28.50;17.17;;;;;;;0.88;71.53;99096.80;4214129;83;21228;-88
2021/03/19 16:43:18;;;;;;;32.23;18.27;;;;;;;0.93;71.41;99096.13;4211109;83;21190;-88
2021/03/19 16:49:19;;;;;;;38.60;19.20;;;;;;;0.91;71.57;99093.52;4211559;83;21584;-86
2021/03/19 16:55:26;;;;;;;35.13;18.05;;;;;;;0.69;71.60;99068.72;4212563;83;21240;-88
2021/03/19 17:01:31;;;;;;;34.27;17.30;;;;;;;0.73;71.55;99083.19;4211785;83;21522;-87
2021/03/19 17:07:34;;;;;;;37.73;20.77;;;;;;;0.65;71.45;99104.13;4216589;83;21343;-86
2021/03/19 17:13:38;;;;;;;41.95;20.62;;;;;;;0.65;71.45;99104.13;4207512;83;21232;-88
2021/03/19 17:19:42;;;;;;;41.53;21.03;;;;;;;0.49;71.89;99104.25;4210927;83;21319;-89
2021/03/19 17:25:47;;;;;;;41.80;21.50;;;;;;;0.30;72.53;99114.97;4215009;83;22137;-88
2021/03/19 17:31:51;;;;;;;40.20;21.35;;;;;;;0.16;72.55;99116.34;4215901;83;21199;-90
2021/03/19 17:37:55;;;;;;;47.43;22.90;;;;;;;0.08;72.69;99117.63;4214537;83;21342;-87
2021/03/19 17:43:57;;;;;;;51.10;24.50;;;;;;;0.07;72.72;99127.59;4217128;83;21196;-87
2021/03/19 17:49:59;;;;;;;47.77;22.97;;;;;;;0.02;73.00;99129.61;4214811;83;21359;-87
2021/03/19 17:56:02;;;;;;;47.33;25.00;;;;;;;-0.14;72.54;99139.87;4215428;83;21167;-88
2021/03/19 18:02:04;;;;;;;57.17;27.20;;;;;;;-0.40;73.78;99133.44;4211978;83;21236;-89
2021/03/19 18:08:08;;;;;;;58.23;28.07;;;;;;;-0.55;74.18;99139.13;4215100;83;21246;-88
2021/03/19 18:14:10;;;;;;;57.30;27.87;;;;;;;-0.56;74.73;99141.02;4212002;83;21406;-88
2021/03/19 18:20:13;;;;;;;55.27;26.97;;;;;;;-0.46;74.82;99148.09;4213778;83;21247;-88
2021/03/19 18:26:14;;;;;;;66.83;31.30;;;;;;;-0.33;74.73;99144.61;4208964;83;21245;-89
2021/03/19 18:32:16;;;;;;;60.67;29.20;;;;;;;-0.40;74.62;99151.73;4212492;83;21248;-91
2021/03/19 18:38:19;;;;;;;56.40;30.60;;;;;;;-0.38;74.73;99157.62;4212516;83;21382;-87
2021/03/19 18:44:21;;;;;;;63.43;29.37;;;;;;;-0.39;75.13;99168.11;4211545;83;21207;-88
2021/03/19 18:50:26;;;;;;;57.37;28.13;;;;;;;-0.37;74.88;99167.27;4211583;83;21192;-88
2021/03/19 18:56:28;;;;;;;61.07;28.57;;;;;;;-0.39;75.17;99167.30;4212253;83;21216;-88
2021/03/19 19:02:31;;;;;;;64.43;29.80;;;;;;;-0.46;75.15;99170.41;4213544;83;21643;-90
2021/03/19 19:08:33;;;;;;;64.00;32.23;;;;;;;-0.56;75.08;99176.52;4210420;83;21232;-89
2021/03/19 19:14:34;;;;;;;70.50;32.27;;;;;;;-0.57;75.22;99182.45;4211751;83;21668;-88
2021/03/19 19:20:41;;;;;;;75.47;38.83;;;;;;;-0.65;75.51;99181.80;4213119;83;21220;-87
2021/03/19 19:26:43;;;;;;;67.57;32.30;;;;;;;-0.56;75.87;99184.58;4210588;83;21187;-88
2021/03/19 19:32:45;;;;;;;75.00;35.90;;;;;;;-0.69;75.26;99191.53;4206267;83;21217;-89
2021/03/19 19:38:46;;;;;;;74.97;36.50;;;;;;;-0.83;75.79;99193.97;4173438;83;21197;-91
2021/03/19 19:44:48;;;;;;;77.10;38.10;;;;;;;-0.82;75.86;99200.92;4170759;83;21161;-88
2021/03/19 19:50:55;;;;;;;90.67;45.53;;;;;;;-0.84;76.03;99204.45;4163785;82;21221;-89
2021/03/19 19:56:58;;;;;;;83.50;41.50;;;;;;;-0.81;76.30;99207.35;4175769;83;21154;-87
2021/03/19 20:03:00;;;;;;;86.40;41.73;;;;;;;-0.91;75.83;99206.73;4171463;82;22431;-88
2021/03/19 20:09:07;;;;;;;83.13;39.07;;;;;;;-1.05;76.48;99212.05;4166166;83;21209;-90
2021/03/19 20:15:12;;;;;;;87.07;45.33;;;;;;;-0.92;76.43;99216.68;4169044;83;21265;-89
2021/03/19 20:21:26;;;;;;;80.70;41.70;;;;;;;-0.97;76.47;99218.10;4168241;83;21197;-90
2021/03/19 20:27:27;;;;;;;82.37;41.47;;;;;;;-1.01;76.23;99208.23;4169806;83;22421;-88
2021/03/19 20:33:29;;;;;;;87.40;45.30;;;;;;;-1.13;76.33;99215.97;4175765;83;21215;-88
2021/03/19 20:39:36;;;;;;;94.20;46.07;;;;;;;-1.13;76.74;99207.91;4211670;82;21204;-92
2021/03/19 20:45:40;;;;;;;87.07;45.70;;;;;;;-1.21;76.49;99213.41;4212080;83;21197;-87
2021/03/19 20:51:42;;;;;;;103.73;53.97;;;;;;;-1.34;76.45;99218.70;4209219;83;21212;-87
2021/03/19 20:57:45;;;;;;;101.40;49.43;;;;;;;-1.38;76.62;99225.23;4213805;83;21201;-87
2021/03/19 21:03:51;;;;;;;93.67;44.87;;;;;;;-1.57;76.20;99227.65;4214915;83;21370;-88
2021/03/19 21:09:56;;;;;;;94.55;46.33;;;;;;;-1.72;76.71;99230.80;4213571;83;21919;-87
2021/03/19 21:15:58;;;;;;;99.57;48.90;;;;;;;-1.73;76.61;99239.14;4213847;83;21390;-86
2021/03/19 21:22:08;;;;;;;108.17;51.83;;;;;;;-1.82;76.74;99236.29;4211743;83;21149;-87
2021/03/19 21:28:09;;;;;;;115.90;56.77;;;;;;;-1.85;77.12;99242.80;4211053;83;22046;-85
2021/03/19 21:34:11;;;;;;;114.50;57.20;;;;;;;-1.99;76.99;99252.64;4208920;83;21217;-87
2021/03/19 21:40:14;;;;;;;106.37;49.10;;;;;;;-2.09;77.34;99255.42;4198013;83;21224;-85
2021/03/19 21:46:16;;;;;;;127.30;59.03;;;;;;;-2.14;77.32;99264.86;4167127;83;71310;-83
2021/03/19 21:52:41;;;;;;;133.43;58.93;;;;;;;-2.20;77.65;99266.02;4215448;82;21734;-82
2021/03/19 21:59:00;;;;;;;134.67;63.93;;;;;;;-2.11;78.56;99271.00;4237574;83;21170;-83
2021/03/19 22:05:03;;;;;;;132.57;65.30;;;;;;;-2.16;78.00;99273.77;4237441;82;21755;-83
2021/03/19 22:11:07;;;;;;;131.53;61.97;;;;;;;-2.22;78.55;99275.69;4240855;82;21361;-85
2021/03/19 22:17:09;;;;;;;143.93;67.70;;;;;;;-2.29;78.38;99283.81;4239384;82;21586;-83
2021/03/19 22:23:10;;;;;;;161.33;72.07;;;;;;;-2.19;78.92;99288.52;4238335;82;21202;-83
2021/03/19 22:29:12;;;;;;;230.73;97.00;;;;;;;-2.16;78.99;99284.48;4215414;82;21187;-83
2021/03/19 22:35:18;;;;;;;132.93;59.90;;;;;;;-2.16;78.62;99291.20;4236202;82;21361;-83
2021/03/19 22:41:22;;;;;;;136.07;66.43;;;;;;;-2.10;78.96;99296.76;4233976;82;21194;-83
2021/03/19 22:47:26;;;;;;;155.67;71.35;;;;;;;-1.91;79.25;99291.69;4235819;82;21179;-84
2021/03/19 22:53:29;;;;;;;178.53;77.13;;;;;;;-1.82;79.40;99300.69;4209905;82;21167;-83
2021/03/19 22:59:43;;;;;;;;;;;;;;;;;;;;;
2021/03/19 23:06:00;;;;;;;174.30;81.80;;;;;;;-1.67;79.00;99304.55;4450333;78;22957;-83
2021/03/19 23:12:04;;;;;;;146.80;73.63;;;;;;;-1.73;79.58;99308.92;4380392;80;21192;-83
2021/03/19 23:18:09;;;;;;;184.43;80.30;;;;;;;-1.62;79.32;99315.23;4383870;80;21236;-82
2021/03/19 23:24:12;;;;;;;147.60;72.87;;;;;;;-1.55;79.60;99322.91;4380872;80;21232;-82
2021/03/19 23:30:19;;;;;;;149.80;74.73;;;;;;;-1.42;79.53;99322.74;4384814;80;21206;-82
2021/03/19 23:36:23;;;;;;;163.10;76.70;;;;;;;-1.34;79.44;99322.91;4379645;80;21340;-83
2021/03/19 23:42:25;;;;;;;143.37;66.93;;;;;;;-1.25;79.47;99322.51;4378728;80;21346;-83
2021/03/19 23:48:27;;;;;;;146.33;72.43;;;;;;;-1.20;79.40;99323.79;4300874;81;21183;-84
2021/03/19 23:54:30;;;;;;;150.40;71.60;;;;;;;-1.14;79.41;99331.25;4301038;81;21752;-82
